Terminal Aerodrome Forecast
Issued by NWS Pendleton, OR

Current Version | Previous Version | Text Only | Print | Product List | Glossary On
Versions: 1 2 3 4 5 6 7 8 9 10 11 12 13
049
FTUS46 KPDT 261735
TAFPDT
TAF
KPDT 261735Z 2618/2718 30013G21KT P6SM SKC
     FM270500 15007KT P6SM SKC
     FM271700 26007KT P6SM SKC=

USA.gov is the U.S. government's official web portal to all federal, state and local government web resources and services.